• Join FlightAware (Why Join?)
  • Login
  • US Flag 
04:20PM EST


 

Airport Tracker/Info


-or-


 

Live Flight TrackerFlight Track Log ✈ EJA941 ✈ 14-Jan-2014 ✈ KEGE - KTRM

Flight Track Log - Related Links

Times and Time Zones

All times are in EST time to prevent confusion due to time zone crossing. See the EJA941 flight status page for this flight to view local times or setup timezone preferences in your user account.

Time Position Orientation Groundspeed Altitude Reporting Facility
EST Latitude Longitude Course Direction KTS MPH feet Rate Location/Type
11:12AM 39.6269 -107.0344 267° West 242 278 13,000  Level Denver Center
11:13AM 39.6969 -107.0419 355° North 278 320 15,100 2,220 Climbing Denver Center
11:14AM 39.7797 -107.0847 338° Northwest 335 386 17,700 2,880 Climbing Denver Center
11:15AM 39.7281 -107.2283 245° Southwest 419 482 21,100 2,400 Climbing Denver Center
11:16AM 39.4975 -107.7061 242° Southwest  Level FlightAware Approximate
11:16AM 39.6542 -107.3539 233° Southwest 446 513 22,700  Level Denver Center
11:17AM 39.5622 -107.5061 232° Southwest 471 542 24,400 1,500 Climbing Denver Center
11:18AM 39.4794 -107.6428 232° Southwest 493 567 25,900 1,560 Climbing Denver Center
11:19AM 39.3947 -107.7828 232° Southwest 507 583 27,700 1,800 Climbing Denver Center
11:20AM 39.2925 -107.9506 232° Southwest 524 603 29,700 1,860 Climbing Denver Center
11:21AM 39.2053 -108.0947 232° Southwest 529 609 31,600 1,740 Climbing Denver Center
11:22AM 39.1008 -108.2653 232° Southwest 539 620 33,300 1,200 Climbing Denver Center
11:23AM 39.0089 -108.4136 231° Southwest 547 629 34,200 1,260 Climbing Denver Center
11:24AM 38.9028 -108.5858 232° Southwest 545 627 36,000 1,440 Climbing Denver Center
11:26AM 38.8019 -108.7497 232° Southwest 524 603 37,600 840 Climbing Denver Center
11:27AM 38.7008 -108.9111 231° Southwest 520 598 38,000 180 Climbing Denver Center
11:28AM 38.6117 -109.0547 232° Southwest 533 613 38,000  Level Denver Center
11:29AM 38.5061 -109.2192 231° Southwest 535 616 38,000  Level Denver Center
11:30AM 38.4172 -109.3622 232° Southwest 537 618 38,000  Level Denver Center
11:31AM 38.3131 -109.5242 231° Southwest 531 611 38,000  Level Denver Center
11:32AM 38.2244 -109.6622 231° Southwest 527 606 38,000  Level Denver Center
11:33AM 38.1211 -109.8239 231° Southwest 528 608 38,000  Level Denver Center
11:34AM 38.0250 -109.9725 231° Southwest 534 615 38,000  Level Denver Center
11:35AM 37.9214 -110.1244 229° Southwest 537 618 38,000  Level Denver Center
11:36AM 37.8281 -110.2603 229° Southwest 536 617 38,000  Level Denver Center
11:37AM 37.7211 -110.4181 229° Southwest 531 611 38,000  Level Denver Center
11:38AM 37.6378 -110.5400 229° Southwest 530 610 38,000  Level Denver Center
11:39AM 37.5417 -110.6789 229° Southwest 528 608 38,000  Level Denver Center
11:40AM 37.4256 -110.8469 229° Southwest 529 609 38,000  Level Denver Center
11:41AM 37.3294 -110.9864 229° Southwest 527 606 38,000  Level Denver Center
11:42AM 37.2303 -111.1253 228° Southwest 531 611 38,000  Level Denver Center
11:43AM 37.1333 -111.2658 229° Southwest 531 611 38,000  Level Denver Center
11:44AM 37.0342 -111.4056 228° Southwest 535 616 38,000  Level Denver Center
11:45AM 36.9381 -111.5428 229° Southwest 529 609 38,000  Level Denver Center
11:46AM 36.8200 -111.7100 229° Southwest 530 610 38,000  Level Denver Center
11:47AM 36.7169 -111.8522 228° Southwest 540 621 38,000  Level Denver Center
11:48AM 36.6131 -111.9964 228° Southwest 550 633 38,000  Level Denver Center
11:49AM 36.5097 -112.1417 229° Southwest 557 641 38,000  Level Denver Center
11:51AM 36.3678 -112.3358 228° Southwest 534 615 38,000  Level Los Angeles Center
11:52AM 36.2686 -112.4708 228° Southwest 528 608 38,000 -120 Level Los Angeles Center
11:53AM 36.1706 -112.6064 228° Southwest 528 608 37,800 -720 Descending Los Angeles Center
11:54AM 36.0719 -112.7406 228° Southwest 527 606 36,600 -900 Descending Los Angeles Center
11:55AM 35.9711 -112.8781 228° Southwest 536 617 36,000 -300 Descending Los Angeles Center
11:56AM 35.8592 -113.0292 228° Southwest 542 624 36,000  Level Los Angeles Center
11:57AM 35.7619 -113.1606 228° Southwest 526 605 36,000 -300 Level Los Angeles Center
11:58AM 35.6658 -113.2897 228° Southwest 520 598 35,500 -840 Descending Los Angeles Center
11:59AM 35.5467 -113.4492 227° Southwest 530 610 34,300 -1,080 Descending Los Angeles Center
12:00PM 35.4458 -113.5842 228° Southwest 541 623 33,300 -960 Descending Los Angeles Center
12:01PM 35.3447 -113.7161 227° Southwest 538 619 32,300 -660 Descending Los Angeles Center
12:02PM 35.2450 -113.8497 228° Southwest 537 618 32,000 -180 Descending Los Angeles Center
12:03PM 35.1333 -113.9933 226° Southwest 543 625 32,000  Level Los Angeles Center
12:04PM 35.0286 -114.1314 227° Southwest 552 635 32,000 -540 Level Los Angeles Center
12:05PM 34.9022 -114.2958 227° Southwest 554 638 30,900 -1,020 Descending Los Angeles Center
12:06PM 34.7967 -114.4331 227° Southwest 555 639 30,000 -600 Descending Los Angeles Center
12:07PM 34.6989 -114.5736 230° Southwest 548 631 29,700 -720 Descending Los Angeles Center
12:08PM 34.6139 -114.7069 232° Southwest 541 623 28,600 -1,200 Descending Los Angeles Center
12:09PM 34.4994 -114.8764 231° Southwest 542 624 27,300 -1,200 Descending Los Angeles Center
12:10PM 34.4067 -115.0153 231° Southwest 534 615 26,200 -1,200 Descending Los Angeles Center
12:11PM 34.3164 -115.1492 231° Southwest 521 600 24,900 -1,440 Descending Los Angeles Center
12:12PM 34.2286 -115.2811 231° Southwest 510 587 23,300 -1,560 Descending Los Angeles Center
12:13PM 34.1439 -115.4039 230° Southwest 489 563 21,700 -1,740 Descending Los Angeles Center
12:14PM 34.0611 -115.5292 231° Southwest 478 550 19,800 -2,160 Descending Los Angeles Center
12:16PM 33.9617 -115.6747 231° Southwest 471 542 17,300 -2,700 Descending Los Angeles Center
12:17PM 33.9097 -115.8078 245° Southwest 446 513 14,300 -2,760 Descending Los Angeles Center
12:18PM 33.9014 -115.9433 266° West 413 475 11,600 -2,460 Descending Los Angeles Center
12:19PM 33.8550 -116.0408 240° Southwest 377 434 9,300 -2,160 Descending Los Angeles Center
12:20PM 33.7844 -116.0936 212° Southwest 329 379 7,200 -1,260 Descending Los Angeles Center
12:21PM 33.7197 -116.1428 212° Southwest 321 369 6,800 -420 Descending Los Angeles Center